sensor_id;sensor_type;location;lat;lon;timestamp;temperature;humidity
7101;DHT22;67978;48.710;8.720;2023-02-28T00:00:30;-3.40;1.00
7101;DHT22;67978;48.710;8.720;2023-02-28T00:02:57;-3.40;1.00
7101;DHT22;67978;48.710;8.720;2023-02-28T00:05:26;-3.50;1.00
7101;DHT22;67978;48.710;8.720;2023-02-28T00:07:54;-3.50;1.00
7101;DHT22;67978;48.710;8.720;2023-02-28T00:10:24;-3.50;1.00
7101;DHT22;67978;48.710;8.720;2023-02-28T00:12:53;-3.60;1.00
7101;DHT22;67978;48.710;8.720;2023-02-28T00:15:23;-3.60;1.00
7101;DHT22;67978;48.710;8.720;2023-02-28T00:17:50;-3.60;1.00
7101;DHT22;67978;48.710;8.720;2023-02-28T00:20:18;-3.60;1.00
7101;DHT22;67978;48.710;8.720;2023-02-28T00:22:47;-3.60;1.00
7101;DHT22;67978;48.710;8.720;2023-02-28T00:25:17;-3.50;1.00
7101;DHT22;67978;48.710;8.720;2023-02-28T00:27:47;-3.60;1.00
7101;DHT22;67978;48.710;8.720;2023-02-28T00:30:16;-3.60;1.00
7101;DHT22;67978;48.710;8.720;2023-02-28T00:32:44;-3.70;1.00
7101;DHT22;67978;48.710;8.720;2023-02-28T00:35:11;-3.70;1.00
7101;DHT22;67978;48.710;8.720;2023-02-28T00:37:39;-3.70;1.00
7101;DHT22;67978;48.710;8.720;2023-02-28T00:40:07;-3.70;1.00
7101;DHT22;67978;48.710;8.720;2023-02-28T00:42:36;-3.80;1.00
7101;DHT22;67978;48.710;8.720;2023-02-28T00:45:05;-3.80;1.00
7101;DHT22;67978;48.710;8.720;2023-02-28T00:47:33;-3.80;1.00
7101;DHT22;67978;48.710;8.720;2023-02-28T00:50:00;-3.80;1.00
7101;DHT22;67978;48.710;8.720;2023-02-28T00:52:27;-3.80;1.00
7101;DHT22;67978;48.710;8.720;2023-02-28T00:54:53;-3.80;1.00
7101;DHT22;67978;48.710;8.720;2023-02-28T00:57:20;-3.80;1.00
7101;DHT22;67978;48.710;8.720;2023-02-28T00:59:47;-3.90;1.00
7101;DHT22;67978;48.710;8.720;2023-02-28T01:02:16;-3.90;1.00
7101;DHT22;67978;48.710;8.720;2023-02-28T01:04:43;-3.90;1.00
7101;DHT22;67978;48.710;8.720;2023-02-28T01:07:10;-3.90;1.00
7101;DHT22;67978;48.710;8.720;2023-02-28T01:09:37;-3.90;1.00
7101;DHT22;67978;48.710;8.720;2023-02-28T01:12:04;-4.00;1.00
7101;DHT22;67978;48.710;8.720;2023-02-28T01:14:31;-3.90;1.00
7101;DHT22;67978;48.710;8.720;2023-02-28T01:16:57;-3.90;1.00
7101;DHT22;67978;48.710;8.720;2023-02-28T01:19:26;-3.90;1.00
7101;DHT22;67978;48.710;8.720;2023-02-28T01:21:52;-3.90;1.00
7101;DHT22;67978;48.710;8.720;2023-02-28T01:24:19;-4.00;1.00
7101;DHT22;67978;48.710;8.720;2023-02-28T01:26:46;-4.00;1.00
7101;DHT22;67978;48.710;8.720;2023-02-28T01:29:13;-4.00;1.00
7101;DHT22;67978;48.710;8.720;2023-02-28T01:31:39;-4.00;1.00
7101;DHT22;67978;48.710;8.720;2023-02-28T01:34:06;-4.00;1.00
7101;DHT22;67978;48.710;8.720;2023-02-28T01:36:34;-4.00;1.00
7101;DHT22;67978;48.710;8.720;2023-02-28T01:39:02;-4.00;1.00
7101;DHT22;67978;48.710;8.720;2023-02-28T01:41:32;-4.10;1.00
7101;DHT22;67978;48.710;8.720;2023-02-28T01:44:03;-4.10;1.00
7101;DHT22;67978;48.710;8.720;2023-02-28T01:46:31;-4.10;1.00
7101;DHT22;67978;48.710;8.720;2023-02-28T01:49:05;-4.00;1.00
7101;DHT22;67978;48.710;8.720;2023-02-28T01:51:39;-4.00;1.00
7101;DHT22;67978;48.710;8.720;2023-02-28T01:54:14;-4.10;1.00
7101;DHT22;67978;48.710;8.720;2023-02-28T01:56:45;-4.20;1.00
7101;DHT22;67978;48.710;8.720;2023-02-28T01:59:20;-4.10;1.00
7101;DHT22;67978;48.710;8.720;2023-02-28T02:01:48;-4.10;1.00
7101;DHT22;67978;48.710;8.720;2023-02-28T02:04:16;-4.10;1.00
7101;DHT22;67978;48.710;8.720;2023-02-28T02:06:45;-4.20;1.00
7101;DHT22;67978;48.710;8.720;2023-02-28T02:09:14;-4.10;1.00
7101;DHT22;67978;48.710;8.720;2023-02-28T02:11:42;-4.10;1.00
7101;DHT22;67978;48.710;8.720;2023-02-28T02:14:31;-4.20;1.00
7101;DHT22;67978;48.710;8.720;2023-02-28T02:17:16;-4.20;1.00
7101;DHT22;67978;48.710;8.720;2023-02-28T02:23:29;-4.20;1.00
7101;DHT22;67978;48.710;8.720;2023-02-28T02:26:16;-4.20;1.00
7101;DHT22;67978;48.710;8.720;2023-02-28T02:29:26;-4.20;1.00
7101;DHT22;67978;48.710;8.720;2023-02-28T02:32:25;-4.20;1.00
7101;DHT22;67978;48.710;8.720;2023-02-28T02:35:12;-4.30;1.00
7101;DHT22;67978;48.710;8.720;2023-02-28T02:37:45;-4.30;1.00
7101;DHT22;67978;48.710;8.720;2023-02-28T02:40:16;-4.30;1.00
7101;DHT22;67978;48.710;8.720;2023-02-28T02:42:51;-4.30;1.00
7101;DHT22;67978;48.710;8.720;2023-02-28T02:45:25;-4.30;1.00
7101;DHT22;67978;48.710;8.720;2023-02-28T02:47:54;-4.30;1.00
7101;DHT22;67978;48.710;8.720;2023-02-28T02:50:29;-4.30;1.00
7101;DHT22;67978;48.710;8.720;2023-02-28T02:53:00;-4.30;1.00
7101;DHT22;67978;48.710;8.720;2023-02-28T02:55:30;-4.30;1.00
7101;DHT22;67978;48.710;8.720;2023-02-28T02:58:02;-4.30;1.00
7101;DHT22;67978;48.710;8.720;2023-02-28T03:00:34;-4.30;1.00
7101;DHT22;67978;48.710;8.720;2023-02-28T03:03:02;-4.30;1.00
7101;DHT22;67978;48.710;8.720;2023-02-28T03:05:34;-4.30;1.00
7101;DHT22;67978;48.710;8.720;2023-02-28T03:08:05;-4.30;1.00
7101;DHT22;67978;48.710;8.720;2023-02-28T03:10:36;-4.30;1.00
7101;DHT22;67978;48.710;8.720;2023-02-28T03:13:16;-4.30;1.00
7101;DHT22;67978;48.710;8.720;2023-02-28T03:16:03;-4.30;1.00
7101;DHT22;67978;48.710;8.720;2023-02-28T03:18:42;-4.30;1.00
7101;DHT22;67978;48.710;8.720;2023-02-28T03:21:20;-4.30;1.00
7101;DHT22;67978;48.710;8.720;2023-02-28T03:23:55;-4.30;1.00
7101;DHT22;67978;48.710;8.720;2023-02-28T03:26:26;-4.40;1.00
7101;DHT22;67978;48.710;8.720;2023-02-28T03:29:02;-4.40;1.00
7101;DHT22;67978;48.710;8.720;2023-02-28T03:31:33;-4.40;1.00
7101;DHT22;67978;48.710;8.720;2023-02-28T03:34:05;-4.40;1.00
7101;DHT22;67978;48.710;8.720;2023-02-28T03:36:38;-4.40;1.00
7101;DHT22;67978;48.710;8.720;2023-02-28T03:39:15;-4.40;1.00
7101;DHT22;67978;48.710;8.720;2023-02-28T03:41:46;-4.40;1.00
7101;DHT22;67978;48.710;8.720;2023-02-28T03:44:19;-4.40;1.00
7101;DHT22;67978;48.710;8.720;2023-02-28T03:46:52;-4.40;1.00
7101;DHT22;67978;48.710;8.720;2023-02-28T03:49:26;-4.40;1.00
7101;DHT22;67978;48.710;8.720;2023-02-28T03:51:59;-4.40;1.00
7101;DHT22;67978;48.710;8.720;2023-02-28T03:54:32;-4.30;1.00
7101;DHT22;67978;48.710;8.720;2023-02-28T03:57:05;-4.40;1.00
7101;DHT22;67978;48.710;8.720;2023-02-28T03:59:38;-4.40;1.00
7101;DHT22;67978;48.710;8.720;2023-02-28T04:02:07;-4.40;1.00
7101;DHT22;67978;48.710;8.720;2023-02-28T04:04:34;-4.40;1.00
7101;DHT22;67978;48.710;8.720;2023-02-28T04:07:04;-4.40;1.00
7101;DHT22;67978;48.710;8.720;2023-02-28T04:09:32;-4.40;1.00
7101;DHT22;67978;48.710;8.720;2023-02-28T04:11:59;-4.40;1.00
7101;DHT22;67978;48.710;8.720;2023-02-28T04:14:26;-4.30;1.00
7101;DHT22;67978;48.710;8.720;2023-02-28T04:16:53;-4.30;1.00
7101;DHT22;67978;48.710;8.720;2023-02-28T04:19:20;-4.30;1.00
7101;DHT22;67978;48.710;8.720;2023-02-28T04:21:48;-4.30;1.00
7101;DHT22;67978;48.710;8.720;2023-02-28T04:24:20;-4.20;1.00
7101;DHT22;67978;48.710;8.720;2023-02-28T04:26:51;-4.30;1.00
7101;DHT22;67978;48.710;8.720;2023-02-28T04:29:20;-4.30;1.00
7101;DHT22;67978;48.710;8.720;2023-02-28T04:31:48;-4.30;1.00
7101;DHT22;67978;48.710;8.720;2023-02-28T04:34:16;-4.30;1.00
7101;DHT22;67978;48.710;8.720;2023-02-28T04:36:44;-4.30;1.00
7101;DHT22;67978;48.710;8.720;2023-02-28T04:39:11;-4.30;1.00
7101;DHT22;67978;48.710;8.720;2023-02-28T04:41:40;-4.30;1.00
7101;DHT22;67978;48.710;8.720;2023-02-28T04:44:06;-4.30;1.00
7101;DHT22;67978;48.710;8.720;2023-02-28T04:46:33;-4.30;1.00
7101;DHT22;67978;48.710;8.720;2023-02-28T04:49:00;-4.20;1.00
7101;DHT22;67978;48.710;8.720;2023-02-28T04:51:27;-4.20;1.00
7101;DHT22;67978;48.710;8.720;2023-02-28T04:53:54;-4.10;1.00
7101;DHT22;67978;48.710;8.720;2023-02-28T04:56:21;-4.10;1.00
7101;DHT22;67978;48.710;8.720;2023-02-28T04:58:50;-4.10;1.00
7101;DHT22;67978;48.710;8.720;2023-02-28T05:01:21;-4.10;1.00
7101;DHT22;67978;48.710;8.720;2023-02-28T05:03:50;-4.10;1.00
7101;DHT22;67978;48.710;8.720;2023-02-28T05:06:18;-4.10;1.00
7101;DHT22;67978;48.710;8.720;2023-02-28T05:08:46;-4.10;1.00
7101;DHT22;67978;48.710;8.720;2023-02-28T05:11:16;-4.10;1.00
7101;DHT22;67978;48.710;8.720;2023-02-28T05:13:44;-4.20;1.00
7101;DHT22;67978;48.710;8.720;2023-02-28T05:16:13;-4.20;1.00
7101;DHT22;67978;48.710;8.720;2023-02-28T05:18:40;-4.20;1.00
7101;DHT22;67978;48.710;8.720;2023-02-28T05:21:23;-4.20;1.00
7101;DHT22;67978;48.710;8.720;2023-02-28T05:23:52;-4.10;1.00
7101;DHT22;67978;48.710;8.720;2023-02-28T05:26:19;-4.10;1.00
7101;DHT22;67978;48.710;8.720;2023-02-28T05:28:46;-4.10;1.00
7101;DHT22;67978;48.710;8.720;2023-02-28T05:31:14;-4.10;1.00
7101;DHT22;67978;48.710;8.720;2023-02-28T05:33:41;-4.10;1.00
7101;DHT22;67978;48.710;8.720;2023-02-28T05:36:08;-4.00;1.00
7101;DHT22;67978;48.710;8.720;2023-02-28T05:38:35;-4.00;1.00
7101;DHT22;67978;48.710;8.720;2023-02-28T05:41:05;-4.00;1.00
7101;DHT22;67978;48.710;8.720;2023-02-28T05:43:33;-4.00;1.00
7101;DHT22;67978;48.710;8.720;2023-02-28T05:46:03;-4.00;1.00
7101;DHT22;67978;48.710;8.720;2023-02-28T05:48:32;-4.00;1.00
7101;DHT22;67978;48.710;8.720;2023-02-28T05:50:59;-4.00;1.00
7101;DHT22;67978;48.710;8.720;2023-02-28T05:53:26;-4.00;1.00
7101;DHT22;67978;48.710;8.720;2023-02-28T05:55:53;-4.00;1.00
7101;DHT22;67978;48.710;8.720;2023-02-28T05:58:20;-3.90;1.00
7101;DHT22;67978;48.710;8.720;2023-02-28T06:00:47;-3.80;1.00
7101;DHT22;67978;48.710;8.720;2023-02-28T06:03:14;-3.90;1.00
7101;DHT22;67978;48.710;8.720;2023-02-28T06:05:43;-3.90;1.00
7101;DHT22;67978;48.710;8.720;2023-02-28T06:08:09;-3.90;1.00
7101;DHT22;67978;48.710;8.720;2023-02-28T06:10:36;-3.90;1.00
7101;DHT22;67978;48.710;8.720;2023-02-28T06:13:03;-3.90;1.00
7101;DHT22;67978;48.710;8.720;2023-02-28T06:15:31;-3.80;1.00
7101;DHT22;67978;48.710;8.720;2023-02-28T06:17:59;-3.80;1.00
7101;DHT22;67978;48.710;8.720;2023-02-28T06:20:27;-3.80;1.00
7101;DHT22;67978;48.710;8.720;2023-02-28T06:22:56;-3.80;1.00
7101;DHT22;67978;48.710;8.720;2023-02-28T06:25:24;-3.80;1.00
7101;DHT22;67978;48.710;8.720;2023-02-28T06:27:51;-3.80;1.00
7101;DHT22;67978;48.710;8.720;2023-02-28T06:30:18;-3.80;1.00
7101;DHT22;67978;48.710;8.720;2023-02-28T06:32:52;-3.70;1.00
7101;DHT22;67978;48.710;8.720;2023-02-28T06:35:19;-3.70;1.00
7101;DHT22;67978;48.710;8.720;2023-02-28T06:37:46;-3.70;1.00
7101;DHT22;67978;48.710;8.720;2023-02-28T06:40:15;-3.70;1.00
7101;DHT22;67978;48.710;8.720;2023-02-28T06:42:42;-3.70;1.00
7101;DHT22;67978;48.710;8.720;2023-02-28T06:45:09;-3.70;1.00
7101;DHT22;67978;48.710;8.720;2023-02-28T06:47:38;-3.70;1.00
7101;DHT22;67978;48.710;8.720;2023-02-28T06:50:07;-3.70;1.00
7101;DHT22;67978;48.710;8.720;2023-02-28T06:52:35;-3.70;1.00
7101;DHT22;67978;48.710;8.720;2023-02-28T06:55:03;-3.60;1.00
7101;DHT22;67978;48.710;8.720;2023-02-28T06:57:33;-3.60;1.00
7101;DHT22;67978;48.710;8.720;2023-02-28T07:00:03;-3.70;1.00
7101;DHT22;67978;48.710;8.720;2023-02-28T07:02:33;-3.60;1.00
7101;DHT22;67978;48.710;8.720;2023-02-28T07:05:00;-3.60;1.00
7101;DHT22;67978;48.710;8.720;2023-02-28T07:07:27;-3.50;1.00
7101;DHT22;67978;48.710;8.720;2023-02-28T07:09:54;-3.60;1.00
7101;DHT22;67978;48.710;8.720;2023-02-28T07:12:20;-3.50;1.00
7101;DHT22;67978;48.710;8.720;2023-02-28T07:14:48;-3.50;1.00
7101;DHT22;67978;48.710;8.720;2023-02-28T07:17:15;-3.50;1.00
7101;DHT22;67978;48.710;8.720;2023-02-28T07:19:42;-3.40;1.00
7101;DHT22;67978;48.710;8.720;2023-02-28T07:22:09;-3.40;1.00
7101;DHT22;67978;48.710;8.720;2023-02-28T07:24:36;-3.40;1.00
7101;DHT22;67978;48.710;8.720;2023-02-28T07:27:03;-3.40;1.00
7101;DHT22;67978;48.710;8.720;2023-02-28T07:29:30;-3.40;1.00
7101;DHT22;67978;48.710;8.720;2023-02-28T07:31:58;-3.40;1.00
7101;DHT22;67978;48.710;8.720;2023-02-28T07:34:25;-3.40;1.00
7101;DHT22;67978;48.710;8.720;2023-02-28T07:36:53;-3.40;1.00
7101;DHT22;67978;48.710;8.720;2023-02-28T07:39:20;-3.40;1.00
7101;DHT22;67978;48.710;8.720;2023-02-28T07:41:47;-3.40;1.00
7101;DHT22;67978;48.710;8.720;2023-02-28T07:44:14;-3.30;1.00
7101;DHT22;67978;48.710;8.720;2023-02-28T07:46:41;-3.30;1.00
7101;DHT22;67978;48.710;8.720;2023-02-28T07:49:09;-3.20;1.00
7101;DHT22;67978;48.710;8.720;2023-02-28T07:51:36;-3.20;1.00
7101;DHT22;67978;48.710;8.720;2023-02-28T07:54:03;-3.20;1.00
7101;DHT22;67978;48.710;8.720;2023-02-28T07:56:30;-3.20;1.00
7101;DHT22;67978;48.710;8.720;2023-02-28T07:58:57;-3.20;1.00
7101;DHT22;67978;48.710;8.720;2023-02-28T08:01:24;-3.20;1.00
7101;DHT22;67978;48.710;8.720;2023-02-28T08:03:51;-3.20;1.00
7101;DHT22;67978;48.710;8.720;2023-02-28T08:06:22;-3.20;1.00
7101;DHT22;67978;48.710;8.720;2023-02-28T08:08:50;-3.20;1.00
7101;DHT22;67978;48.710;8.720;2023-02-28T08:11:18;-3.10;1.00
7101;DHT22;67978;48.710;8.720;2023-02-28T08:13:45;-3.10;1.00
7101;DHT22;67978;48.710;8.720;2023-02-28T08:16:13;-3.10;1.00
7101;DHT22;67978;48.710;8.720;2023-02-28T08:18:42;-3.10;1.00
7101;DHT22;67978;48.710;8.720;2023-02-28T08:21:10;-3.00;1.00
7101;DHT22;67978;48.710;8.720;2023-02-28T08:23:38;-3.00;1.00
7101;DHT22;67978;48.710;8.720;2023-02-28T08:26:05;-3.00;1.00
7101;DHT22;67978;48.710;8.720;2023-02-28T08:28:33;-3.00;1.00
7101;DHT22;67978;48.710;8.720;2023-02-28T08:31:00;-2.90;1.00
7101;DHT22;67978;48.710;8.720;2023-02-28T08:33:27;-2.90;1.00
7101;DHT22;67978;48.710;8.720;2023-02-28T08:35:54;-2.80;1.00
7101;DHT22;67978;48.710;8.720;2023-02-28T08:38:22;-2.90;1.00
7101;DHT22;67978;48.710;8.720;2023-02-28T08:40:56;-2.80;1.00
7101;DHT22;67978;48.710;8.720;2023-02-28T08:43:23;-2.80;1.00
7101;DHT22;67978;48.710;8.720;2023-02-28T08:45:51;-2.80;1.00
7101;DHT22;67978;48.710;8.720;2023-02-28T08:48:18;-2.70;1.00
7101;DHT22;67978;48.710;8.720;2023-02-28T08:50:54;-2.70;1.00
7101;DHT22;67978;48.710;8.720;2023-02-28T08:53:21;-2.70;1.00
7101;DHT22;67978;48.710;8.720;2023-02-28T08:55:57;-2.70;1.00
7101;DHT22;67978;48.710;8.720;2023-02-28T08:58:24;-2.70;1.00
7101;DHT22;67978;48.710;8.720;2023-02-28T09:00:51;-2.70;1.00
7101;DHT22;67978;48.710;8.720;2023-02-28T09:03:18;-2.70;1.00
7101;DHT22;67978;48.710;8.720;2023-02-28T09:05:52;-2.70;1.00
7101;DHT22;67978;48.710;8.720;2023-02-28T09:08:20;-2.60;1.00
7101;DHT22;67978;48.710;8.720;2023-02-28T09:10:47;-2.60;1.00
7101;DHT22;67978;48.710;8.720;2023-02-28T09:13:15;-2.60;1.00
7101;DHT22;67978;48.710;8.720;2023-02-28T09:15:42;-2.70;1.00
7101;DHT22;67978;48.710;8.720;2023-02-28T09:18:09;-2.60;1.00
7101;DHT22;67978;48.710;8.720;2023-02-28T09:20:37;-2.50;1.00
7101;DHT22;67978;48.710;8.720;2023-02-28T09:23:05;-2.50;1.00
7101;DHT22;67978;48.710;8.720;2023-02-28T09:25:33;-2.60;1.00
7101;DHT22;67978;48.710;8.720;2023-02-28T09:28:01;-2.60;1.00
7101;DHT22;67978;48.710;8.720;2023-02-28T09:30:30;-2.50;1.00
7101;DHT22;67978;48.710;8.720;2023-02-28T09:32:57;-2.50;1.00
7101;DHT22;67978;48.710;8.720;2023-02-28T09:35:24;-2.50;1.00
7101;DHT22;67978;48.710;8.720;2023-02-28T09:37:53;-2.40;1.00
7101;DHT22;67978;48.710;8.720;2023-02-28T09:40:22;-2.30;1.00
7101;DHT22;67978;48.710;8.720;2023-02-28T09:42:52;-2.30;1.00
7101;DHT22;67978;48.710;8.720;2023-02-28T09:45:23;-2.20;1.00
7101;DHT22;67978;48.710;8.720;2023-02-28T09:47:55;-2.20;1.00
7101;DHT22;67978;48.710;8.720;2023-02-28T09:50:30;-2.20;1.00
7101;DHT22;67978;48.710;8.720;2023-02-28T09:53:05;-2.20;1.00
7101;DHT22;67978;48.710;8.720;2023-02-28T09:55:40;-2.20;1.00
7101;DHT22;67978;48.710;8.720;2023-02-28T09:58:17;-2.20;1.00
7101;DHT22;67978;48.710;8.720;2023-02-28T10:00:49;-2.10;1.00
7101;DHT22;67978;48.710;8.720;2023-02-28T10:03:30;-2.10;1.00
7101;DHT22;67978;48.710;8.720;2023-02-28T10:06:03;-2.10;1.00
7101;DHT22;67978;48.710;8.720;2023-02-28T10:08:37;-2.10;1.00
7101;DHT22;67978;48.710;8.720;2023-02-28T10:11:10;-2.00;1.00
7101;DHT22;67978;48.710;8.720;2023-02-28T10:13:46;-2.00;1.00
7101;DHT22;67978;48.710;8.720;2023-02-28T10:16:22;-2.00;1.00
7101;DHT22;67978;48.710;8.720;2023-02-28T10:18:57;-2.00;1.00
7101;DHT22;67978;48.710;8.720;2023-02-28T10:21:29;-1.90;1.00
7101;DHT22;67978;48.710;8.720;2023-02-28T10:24:04;-1.90;1.00
7101;DHT22;67978;48.710;8.720;2023-02-28T10:26:43;-1.80;1.00
7101;DHT22;67978;48.710;8.720;2023-02-28T10:29:11;-1.70;1.00
7101;DHT22;67978;48.710;8.720;2023-02-28T10:31:39;-1.70;1.00
7101;DHT22;67978;48.710;8.720;2023-02-28T10:34:12;-1.70;1.00
7101;DHT22;67978;48.710;8.720;2023-02-28T10:36:39;-1.60;1.00
7101;DHT22;67978;48.710;8.720;2023-02-28T10:39:35;-1.60;1.00
7101;DHT22;67978;48.710;8.720;2023-02-28T10:42:03;-1.50;1.00
7101;DHT22;67978;48.710;8.720;2023-02-28T10:44:32;-1.50;1.00
7101;DHT22;67978;48.710;8.720;2023-02-28T10:46:59;-1.40;1.00
7101;DHT22;67978;48.710;8.720;2023-02-28T10:49:29;-1.40;1.00
7101;DHT22;67978;48.710;8.720;2023-02-28T10:51:58;-1.30;1.00
7101;DHT22;67978;48.710;8.720;2023-02-28T10:54:29;-1.30;1.00
7101;DHT22;67978;48.710;8.720;2023-02-28T10:57:15;-1.20;1.00
7101;DHT22;67978;48.710;8.720;2023-02-28T10:59:44;-1.20;1.00
7101;DHT22;67978;48.710;8.720;2023-02-28T11:02:31;-1.10;1.00
7101;DHT22;67978;48.710;8.720;2023-02-28T11:05:01;-1.10;1.00
7101;DHT22;67978;48.710;8.720;2023-02-28T11:07:28;-1.10;1.00
7101;DHT22;67978;48.710;8.720;2023-02-28T11:09:57;-1.00;1.00
7101;DHT22;67978;48.710;8.720;2023-02-28T11:12:27;-0.90;1.00
7101;DHT22;67978;48.710;8.720;2023-02-28T11:14:58;-0.90;1.00
7101;DHT22;67978;48.710;8.720;2023-02-28T11:17:31;-0.80;1.00
7101;DHT22;67978;48.710;8.720;2023-02-28T11:20:01;-0.70;1.00
7101;DHT22;67978;48.710;8.720;2023-02-28T11:22:32;-0.60;1.00
7101;DHT22;67978;48.710;8.720;2023-02-28T11:25:03;-0.60;1.00
7101;DHT22;67978;48.710;8.720;2023-02-28T11:27:46;-0.50;1.00
7101;DHT22;67978;48.710;8.720;2023-02-28T11:30:33;-0.50;1.00
7101;DHT22;67978;48.710;8.720;2023-02-28T11:33:17;-0.50;1.00
7101;DHT22;67978;48.710;8.720;2023-02-28T11:35:49;-0.60;1.00
7101;DHT22;67978;48.710;8.720;2023-02-28T11:38:17;-0.60;1.00
7101;DHT22;67978;48.710;8.720;2023-02-28T11:40:48;-0.60;1.00
7101;DHT22;67978;48.710;8.720;2023-02-28T11:43:33;-0.40;1.00
7101;DHT22;67978;48.710;8.720;2023-02-28T11:46:14;-0.30;1.00
7101;DHT22;67978;48.710;8.720;2023-02-28T11:48:53;-0.30;1.00
7101;DHT22;67978;48.710;8.720;2023-02-28T11:51:31;-0.20;1.00
7101;DHT22;67978;48.710;8.720;2023-02-28T11:54:09;-0.10;1.00
7101;DHT22;67978;48.710;8.720;2023-02-28T11:56:48;0.00;1.00
7101;DHT22;67978;48.710;8.720;2023-02-28T11:59:35;0.10;1.00
7101;DHT22;67978;48.710;8.720;2023-02-28T12:02:23;0.10;1.00
7101;DHT22;67978;48.710;8.720;2023-02-28T12:05:11;0.10;1.00
7101;DHT22;67978;48.710;8.720;2023-02-28T12:07:59;0.10;1.00
7101;DHT22;67978;48.710;8.720;2023-02-28T12:10:36;0.30;1.00
7101;DHT22;67978;48.710;8.720;2023-02-28T12:13:21;0.30;1.00
7101;DHT22;67978;48.710;8.720;2023-02-28T12:16:25;0.30;1.00
7101;DHT22;67978;48.710;8.720;2023-02-28T12:19:10;0.20;1.00
7101;DHT22;67978;48.710;8.720;2023-02-28T12:22:05;0.20;1.00
7101;DHT22;67978;48.710;8.720;2023-02-28T12:24:59;0.20;1.00
7101;DHT22;67978;48.710;8.720;2023-02-28T12:27:38;0.20;1.00
7101;DHT22;67978;48.710;8.720;2023-02-28T12:30:14;0.10;1.00
7101;DHT22;67978;48.710;8.720;2023-02-28T12:32:45;0.00;1.00
7101;DHT22;67978;48.710;8.720;2023-02-28T12:35:17;0.00;1.00
7101;DHT22;67978;48.710;8.720;2023-02-28T12:37:51;0.00;1.00
7101;DHT22;67978;48.710;8.720;2023-02-28T12:40:27;0.10;1.00
7101;DHT22;67978;48.710;8.720;2023-02-28T12:42:58;0.20;1.00
7101;DHT22;67978;48.710;8.720;2023-02-28T12:45:32;0.30;1.00
7101;DHT22;67978;48.710;8.720;2023-02-28T12:48:08;0.50;1.00
7101;DHT22;67978;48.710;8.720;2023-02-28T12:50:39;0.70;1.00
7101;DHT22;67978;48.710;8.720;2023-02-28T12:53:09;0.90;1.00
7101;DHT22;67978;48.710;8.720;2023-02-28T12:55:48;1.10;1.00
7101;DHT22;67978;48.710;8.720;2023-02-28T12:58:26;1.10;1.00
7101;DHT22;67978;48.710;8.720;2023-02-28T13:01:10;1.10;1.00
7101;DHT22;67978;48.710;8.720;2023-02-28T13:04:00;1.20;1.00
7101;DHT22;67978;48.710;8.720;2023-02-28T13:06:50;1.20;1.00
7101;DHT22;67978;48.710;8.720;2023-02-28T13:09:25;1.30;1.00
7101;DHT22;67978;48.710;8.720;2023-02-28T13:11:54;1.40;1.00
7101;DHT22;67978;48.710;8.720;2023-02-28T13:14:25;1.50;1.00
7101;DHT22;67978;48.710;8.720;2023-02-28T13:17:02;1.80;1.00
7101;DHT22;67978;48.710;8.720;2023-02-28T13:19:37;1.90;1.00
7101;DHT22;67978;48.710;8.720;2023-02-28T13:22:16;1.80;1.00
7101;DHT22;67978;48.710;8.720;2023-02-28T13:24:48;1.70;1.00
7101;DHT22;67978;48.710;8.720;2023-02-28T13:27:33;1.50;1.00
7101;DHT22;67978;48.710;8.720;2023-02-28T13:33:30;1.70;1.00
7101;DHT22;67978;48.710;8.720;2023-02-28T13:36:23;1.60;1.00
7101;DHT22;67978;48.710;8.720;2023-02-28T13:38:52;1.50;1.00
7101;DHT22;67978;48.710;8.720;2023-02-28T13:41:43;1.40;1.00
7101;DHT22;67978;48.710;8.720;2023-02-28T13:44:14;1.40;1.00
7101;DHT22;67978;48.710;8.720;2023-02-28T13:47:21;1.40;1.00
7101;DHT22;67978;48.710;8.720;2023-02-28T13:49:51;1.40;1.00
7101;DHT22;67978;48.710;8.720;2023-02-28T13:52:21;1.60;1.00
7101;DHT22;67978;48.710;8.720;2023-02-28T13:55:01;1.80;1.00
7101;DHT22;67978;48.710;8.720;2023-02-28T13:57:49;1.90;1.00
7101;DHT22;67978;48.710;8.720;2023-02-28T14:00:33;1.90;1.00
7101;DHT22;67978;48.710;8.720;2023-02-28T14:03:26;1.90;1.00
7101;DHT22;67978;48.710;8.720;2023-02-28T14:06:15;1.90;1.00
7101;DHT22;67978;48.710;8.720;2023-02-28T14:08:54;1.90;1.00
7101;DHT22;67978;48.710;8.720;2023-02-28T14:11:26;1.90;1.00
7101;DHT22;67978;48.710;8.720;2023-02-28T14:13:57;1.80;1.00
7101;DHT22;67978;48.710;8.720;2023-02-28T14:16:26;1.80;1.00
7101;DHT22;67978;48.710;8.720;2023-02-28T14:18:58;1.70;1.00
7101;DHT22;67978;48.710;8.720;2023-02-28T14:21:29;1.80;1.00
7101;DHT22;67978;48.710;8.720;2023-02-28T14:27:23;1.90;1.00
7101;DHT22;67978;48.710;8.720;2023-02-28T14:30:14;2.00;1.00
7101;DHT22;67978;48.710;8.720;2023-02-28T14:33:05;1.90;1.00
7101;DHT22;67978;48.710;8.720;2023-02-28T14:35:55;1.80;1.00
7101;DHT22;67978;48.710;8.720;2023-02-28T14:38:43;1.80;1.00
7101;DHT22;67978;48.710;8.720;2023-02-28T14:41:20;1.70;1.00
7101;DHT22;67978;48.710;8.720;2023-02-28T14:43:51;1.80;1.00
7101;DHT22;67978;48.710;8.720;2023-02-28T14:46:25;1.90;1.00
7101;DHT22;67978;48.710;8.720;2023-02-28T14:48:55;1.90;1.00
7101;DHT22;67978;48.710;8.720;2023-02-28T14:51:23;1.90;1.00
7101;DHT22;67978;48.710;8.720;2023-02-28T14:53:57;1.90;1.00
7101;DHT22;67978;48.710;8.720;2023-02-28T14:56:28;2.00;1.00
7101;DHT22;67978;48.710;8.720;2023-02-28T14:59:01;2.00;1.00
7101;DHT22;67978;48.710;8.720;2023-02-28T15:01:28;1.90;1.00
7101;DHT22;67978;48.710;8.720;2023-02-28T15:04:01;1.90;1.00
7101;DHT22;67978;48.710;8.720;2023-02-28T15:06:30;1.90;1.00
7101;DHT22;67978;48.710;8.720;2023-02-28T15:09:13;1.90;1.00
7101;DHT22;67978;48.710;8.720;2023-02-28T15:11:44;1.90;1.00
7101;DHT22;67978;48.710;8.720;2023-02-28T15:14:16;1.90;1.00
7101;DHT22;67978;48.710;8.720;2023-02-28T15:16:48;1.90;1.00
7101;DHT22;67978;48.710;8.720;2023-02-28T15:19:22;1.90;1.00
7101;DHT22;67978;48.710;8.720;2023-02-28T15:21:53;1.90;1.00
7101;DHT22;67978;48.710;8.720;2023-02-28T15:24:27;1.90;1.00
7101;DHT22;67978;48.710;8.720;2023-02-28T15:27:03;2.00;1.00
7101;DHT22;67978;48.710;8.720;2023-02-28T15:29:36;1.90;1.00
7101;DHT22;67978;48.710;8.720;2023-02-28T15:32:23;1.90;1.00
7101;DHT22;67978;48.710;8.720;2023-02-28T15:34:53;1.80;1.00
7101;DHT22;67978;48.710;8.720;2023-02-28T15:37:30;1.80;1.00
7101;DHT22;67978;48.710;8.720;2023-02-28T15:40:12;1.80;1.00
7101;DHT22;67978;48.710;8.720;2023-02-28T15:42:42;1.80;1.00
7101;DHT22;67978;48.710;8.720;2023-02-28T15:45:32;1.80;1.00
7101;DHT22;67978;48.710;8.720;2023-02-28T15:48:02;1.80;1.00
7101;DHT22;67978;48.710;8.720;2023-02-28T15:50:31;1.80;1.00
7101;DHT22;67978;48.710;8.720;2023-02-28T15:53:00;1.80;1.00
7101;DHT22;67978;48.710;8.720;2023-02-28T15:55:29;1.70;1.00
7101;DHT22;67978;48.710;8.720;2023-02-28T15:58:00;1.70;1.00
7101;DHT22;67978;48.710;8.720;2023-02-28T16:00:29;1.70;1.00
7101;DHT22;67978;48.710;8.720;2023-02-28T16:02:58;1.80;1.00
7101;DHT22;67978;48.710;8.720;2023-02-28T16:05:26;1.70;1.00
7101;DHT22;67978;48.710;8.720;2023-02-28T16:08:00;1.70;1.00
7101;DHT22;67978;48.710;8.720;2023-02-28T16:10:29;1.70;1.00
7101;DHT22;67978;48.710;8.720;2023-02-28T16:12:56;1.70;1.00
7101;DHT22;67978;48.710;8.720;2023-02-28T16:15:25;1.70;1.00
7101;DHT22;67978;48.710;8.720;2023-02-28T16:17:55;1.70;1.00
7101;DHT22;67978;48.710;8.720;2023-02-28T16:20:23;1.70;1.00
7101;DHT22;67978;48.710;8.720;2023-02-28T16:22:52;1.60;1.00
7101;DHT22;67978;48.710;8.720;2023-02-28T16:25:23;1.60;1.00
7101;DHT22;67978;48.710;8.720;2023-02-28T16:27:55;1.60;1.00
7101;DHT22;67978;48.710;8.720;2023-02-28T16:30:27;1.60;1.00
7101;DHT22;67978;48.710;8.720;2023-02-28T16:32:57;1.50;1.00
7101;DHT22;67978;48.710;8.720;2023-02-28T16:35:24;1.50;1.00
7101;DHT22;67978;48.710;8.720;2023-02-28T16:37:52;1.70;1.00
7101;DHT22;67978;48.710;8.720;2023-02-28T16:40:23;1.70;1.00
7101;DHT22;67978;48.710;8.720;2023-02-28T16:42:57;1.60;1.00
7101;DHT22;67978;48.710;8.720;2023-02-28T16:45:26;1.50;1.00
7101;DHT22;67978;48.710;8.720;2023-02-28T16:47:54;1.40;1.00